createdAt,value
2022-09-04T00:02:05.682Z,1.10
2022-09-04T00:07:21.749Z,1.05
2022-09-04T00:12:29.677Z,1.20
2022-09-04T00:17:41.473Z,1.10
2022-09-04T00:22:53.771Z,1.23
2022-09-04T00:28:07.535Z,1.20
2022-09-04T00:33:18.447Z,1.30
2022-09-04T00:38:36.639Z,1.10
2022-09-04T00:44:12.893Z,1.30
2022-09-04T00:49:43.084Z,1.20
2022-09-04T00:55:08.553Z,1.27
2022-09-04T01:00:15.366Z,1.10
2022-09-04T01:05:36.118Z,1.27
2022-09-04T01:10:51.433Z,1.10
2022-09-04T01:15:59.922Z,1.10
2022-09-04T01:21:17.155Z,1.40
2022-09-04T01:26:26.349Z,1.20
2022-09-04T01:31:39.619Z,1.10
2022-09-04T01:36:49.800Z,1.40
2022-09-04T01:42:01.447Z,1.30
2022-09-04T01:47:12.594Z,1.10
2022-09-04T01:52:36.568Z,1.20
2022-09-04T01:57:52.093Z,1.20
2022-09-04T02:03:01.322Z,1.37
2022-09-04T02:08:28.516Z,1.10
2022-09-04T02:13:43.696Z,1.30
2022-09-04T02:18:55.597Z,1.17
2022-09-04T02:24:07.221Z,1.53
2022-09-04T02:29:18.294Z,1.30
2022-09-04T02:34:28.738Z,1.20
2022-09-04T02:39:46.331Z,1.13
2022-09-04T02:45:02.116Z,1.15
2022-09-04T02:50:12.893Z,1.30
2022-09-04T02:55:30.455Z,1.37
2022-09-04T03:00:44.136Z,1.10
2022-09-04T03:05:54.153Z,1.30
2022-09-04T03:11:03.344Z,1.30
2022-09-04T03:16:17.274Z,1.10
2022-09-04T03:21:25.047Z,1.45
2022-09-04T03:26:30.858Z,1.48
2022-09-04T03:31:47.043Z,1.37
2022-09-04T03:37:04.232Z,1.23
2022-09-04T03:42:16.794Z,1.45
2022-09-04T03:47:28.770Z,1.20
2022-09-04T03:52:38.888Z,1.40
2022-09-04T03:57:57.116Z,1.40
2022-09-04T04:03:17.688Z,1.20
2022-09-04T04:08:42.662Z,1.40
2022-09-04T04:14:05.422Z,1.40
2022-09-04T04:19:27.561Z,1.17
2022-09-04T04:24:48.805Z,1.43
2022-09-04T04:30:06.441Z,1.30
2022-09-04T04:35:19.183Z,1.20
2022-09-04T04:40:33.440Z,1.40
2022-09-04T04:45:52.681Z,1.47
2022-09-04T04:51:07.547Z,1.40
2022-09-04T04:56:15.892Z,1.48
2022-09-04T05:01:29.674Z,1.30
2022-09-04T05:06:40.864Z,1.45
2022-09-04T05:11:54.658Z,1.40
2022-09-04T05:17:06.461Z,1.60
2022-09-04T05:22:19.617Z,1.30
2022-09-04T05:27:40.402Z,1.60
2022-09-04T05:32:55.727Z,1.40
2022-09-04T05:38:10.028Z,1.53
2022-09-04T05:43:26.736Z,1.40
2022-09-04T05:48:39.188Z,1.27
2022-09-04T05:54:09.235Z,1.50
2022-09-04T05:59:48.713Z,1.30
2022-09-04T06:05:04.531Z,1.48
2022-09-04T06:10:15.505Z,1.40
2022-09-04T06:15:34.144Z,1.80
2022-09-04T06:20:51.275Z,1.58
2022-09-04T06:26:19.133Z,1.23
2022-09-04T06:31:54.361Z,1.50
2022-09-04T06:37:07.790Z,1.50
2022-09-04T06:42:26.181Z,1.40
2022-09-04T06:47:42.659Z,1.30
2022-09-04T06:52:55.891Z,1.50
2022-09-04T06:58:20.406Z,1.35
2022-09-04T07:03:39.244Z,1.40
2022-09-04T07:08:55.586Z,1.65
2022-09-04T07:14:45.059Z,1.65
2022-09-04T07:20:09.955Z,1.50
2022-09-04T07:25:18.388Z,1.73
2022-09-04T07:30:26.074Z,1.70
2022-09-04T07:35:34.606Z,1.63
2022-09-04T07:40:42.556Z,1.40
2022-09-04T07:45:55.349Z,1.50
2022-09-04T07:51:10.167Z,1.45
2022-09-04T07:56:25.500Z,1.67
2022-09-04T08:01:49.104Z,1.40
2022-09-04T08:06:59.657Z,1.20
2022-09-04T08:12:35.794Z,1.50
2022-09-04T08:17:57.895Z,1.60
2022-09-04T08:23:13.487Z,1.65
2022-09-04T08:28:33.344Z,1.63
2022-09-04T08:34:01.520Z,1.67
2022-09-04T08:39:09.632Z,1.60
2022-09-04T08:45:01.224Z,1.60
2022-09-04T08:50:27.540Z,1.67
2022-09-04T08:55:41.013Z,1.60
2022-09-04T09:01:05.197Z,1.60
2022-09-04T09:06:29.623Z,1.80
2022-09-04T09:12:03.984Z,1.93
2022-09-04T09:17:13.631Z,1.90
2022-09-04T09:22:51.067Z,1.85
2022-09-04T09:28:30.151Z,2.00
2022-09-04T09:34:01.749Z,1.80
2022-09-04T09:39:34.215Z,1.85
2022-09-04T09:45:15.152Z,1.87
2022-09-04T09:50:42.454Z,1.90
2022-09-04T09:56:13.526Z,1.70
2022-09-04T10:01:35.026Z,2.00
2022-09-04T10:07:11.520Z,1.90
2022-09-04T10:12:57.031Z,1.70
2022-09-04T10:18:45.504Z,1.95
2022-09-04T10:24:20.597Z,1.77
2022-09-04T10:29:49.683Z,1.60
2022-09-04T10:35:19.031Z,1.50
2022-09-04T10:40:43.287Z,1.70
2022-09-04T10:46:01.127Z,1.90
2022-09-04T10:51:34.632Z,1.50
2022-09-04T10:56:47.796Z,1.70
2022-09-04T11:02:22.339Z,1.63
2022-09-04T11:07:51.607Z,1.65
2022-09-04T11:13:51.753Z,1.60
2022-09-04T11:19:19.916Z,1.87
2022-09-04T11:25:04.328Z,1.60
2022-09-04T11:30:17.787Z,2.15
2022-09-04T11:35:49.134Z,1.87
2022-09-04T11:41:28.321Z,1.70
2022-09-04T11:46:52.296Z,1.70
2022-09-04T11:52:26.483Z,1.50
2022-09-04T11:57:45.329Z,1.63
2022-09-04T12:03:32.414Z,1.80
2022-09-04T12:09:06.886Z,1.70
2022-09-04T12:14:24.634Z,1.70
2022-09-04T12:19:58.866Z,1.80
2022-09-04T12:25:27.409Z,1.70
2022-09-04T12:30:36.006Z,1.97
2022-09-04T12:36:15.463Z,2.00
2022-09-04T12:41:23.329Z,2.00
2022-09-04T12:46:50.368Z,2.17
2022-09-04T12:52:04.875Z,2.20
2022-09-04T12:57:24.519Z,2.10
2022-09-04T13:02:39.175Z,2.10
2022-09-04T13:07:54.129Z,1.90
2022-09-04T13:13:10.865Z,2.00
2022-09-04T13:18:24.752Z,2.13
2022-09-04T13:23:39.345Z,2.20
2022-09-04T13:28:56.624Z,2.08
2022-09-04T13:34:11.249Z,2.20
2022-09-04T13:39:39.195Z,2.10
2022-09-04T13:45:05.617Z,2.10
2022-09-04T13:50:18.766Z,1.98
2022-09-04T13:55:25.980Z,2.08
2022-09-04T14:00:33.397Z,2.23
2022-09-04T14:05:38.559Z,2.20
2022-09-04T14:11:11.256Z,2.25
2022-09-04T14:16:15.852Z,2.30
2022-09-04T14:21:31.510Z,2.28
2022-09-04T14:26:42.464Z,2.58
2022-09-04T14:31:58.602Z,2.50
2022-09-04T14:37:16.202Z,2.50
2022-09-04T14:42:45.093Z,2.47
2022-09-04T14:47:54.816Z,2.40
2022-09-04T14:53:03.643Z,3.07
2022-09-04T14:58:17.912Z,2.30
2022-09-04T15:03:25.934Z,2.33
2022-09-04T15:08:36.788Z,2.50
2022-09-04T15:13:55.159Z,2.55
2022-09-04T15:19:24.369Z,2.28
2022-09-04T15:24:33.724Z,2.43
2022-09-04T15:29:47.508Z,2.43
2022-09-04T15:34:51.217Z,2.40
2022-09-04T15:40:04.334Z,2.30
2022-09-04T15:45:16.616Z,2.23
2022-09-04T15:50:22.754Z,2.10
2022-09-04T15:55:31.042Z,2.10
2022-09-04T16:00:39.077Z,2.10
2022-09-04T16:05:47.137Z,2.40
2022-09-04T16:11:00.439Z,2.20
2022-09-04T16:16:11.109Z,2.20
2022-09-04T16:21:24.412Z,2.20
2022-09-04T16:26:32.989Z,2.05
2022-09-04T16:31:37.216Z,1.90
2022-09-04T16:36:44.123Z,2.13
2022-09-04T16:41:52.258Z,2.10
2022-09-04T16:47:04.615Z,2.22
2022-09-04T16:52:58.600Z,2.23
2022-09-04T16:58:49.315Z,1.98
2022-09-04T17:04:19.804Z,2.00
2022-09-04T17:09:29.371Z,2.00
2022-09-04T17:14:38.103Z,2.00
2022-09-04T17:19:42.353Z,1.70
2022-09-04T17:29:02.193Z,1.95
2022-09-04T17:30:25.809Z,1.70
2022-09-04T17:40:40.357Z,1.67
2022-09-04T17:47:34.158Z,1.60
2022-09-04T17:52:57.910Z,1.58
2022-09-04T17:58:07.534Z,1.52
2022-09-04T18:03:24.924Z,1.70
2022-09-04T18:08:37.035Z,1.50
2022-09-04T18:13:45.274Z,1.88
2022-09-04T18:18:52.809Z,1.50
2022-09-04T18:24:04.569Z,1.60
2022-09-04T18:30:11.914Z,1.98
2022-09-04T18:37:18.592Z,1.48
2022-09-04T18:40:39.187Z,1.70
2022-09-04T18:50:38.247Z,1.73
2022-09-04T18:51:25.017Z,1.88
2022-09-04T18:56:31.581Z,1.80
2022-09-04T19:01:43.110Z,1.87
2022-09-04T19:07:06.829Z,1.63
2022-09-04T19:12:17.737Z,1.60
2022-09-04T19:17:23.727Z,1.60
2022-09-04T19:22:32.860Z,1.77
2022-09-04T19:27:42.070Z,1.60
2022-09-04T19:33:02.913Z,1.80
2022-09-04T19:41:42.944Z,1.60
2022-09-04T19:46:25.690Z,1.48
2022-09-04T19:53:17.966Z,1.60
2022-09-04T19:54:57.176Z,1.60
2022-09-04T20:00:42.668Z,1.60
2022-09-04T20:05:53.125Z,1.83
2022-09-04T20:11:02.634Z,1.50
2022-09-04T20:16:19.014Z,1.52
2022-09-04T20:21:27.163Z,1.45
2022-09-04T20:26:32.761Z,1.60
2022-09-04T20:31:46.902Z,1.40
2022-09-04T20:36:56.916Z,1.85
2022-09-04T20:42:05.923Z,1.60
2022-09-04T20:52:41.062Z,1.53
2022-09-04T20:53:12.323Z,1.50
2022-09-04T21:03:11.911Z,1.42
2022-09-04T21:04:11.278Z,1.40
2022-09-04T21:09:30.532Z,1.63
2022-09-04T21:14:45.522Z,1.70
2022-09-04T21:20:25.175Z,1.53
2022-09-04T21:25:34.483Z,1.40
2022-09-04T21:30:54.783Z,1.60
2022-09-04T21:36:26.972Z,1.30
2022-09-04T21:41:46.005Z,1.40
2022-09-04T21:47:13.113Z,1.52
2022-09-04T21:52:47.687Z,1.23
2022-09-04T22:02:36.670Z,1.30
2022-09-04T22:03:57.491Z,1.55
2022-09-04T22:13:27.431Z,1.30
2022-09-04T22:14:37.316Z,1.40
2022-09-04T22:19:54.994Z,1.30
2022-09-04T22:25:28.314Z,1.35
2022-09-04T22:30:39.121Z,1.37
2022-09-04T22:36:13.666Z,1.40
2022-09-04T22:41:35.974Z,1.10
2022-09-04T22:47:24.463Z,1.40
2022-09-04T22:52:43.258Z,1.17
2022-09-04T22:58:06.139Z,1.58
2022-09-04T23:03:33.303Z,1.33
2022-09-04T23:13:49.256Z,1.20
2022-09-04T23:14:55.035Z,1.38
2022-09-04T23:26:31.685Z,1.60
2022-09-04T23:26:53.129Z,1.30
2022-09-04T23:31:48.677Z,1.40
2022-09-04T23:37:12.957Z,1.48
2022-09-04T23:42:40.461Z,1.30
2022-09-04T23:48:10.831Z,1.40
2022-09-04T23:53:21.544Z,1.50
2022-09-04T23:58:59.419Z,1.50
